sensor_id;sensor_type;location;lat;lon;timestamp;P1;durP1;ratioP1;P2;durP2;ratioP2
70414;SDS011;57837;52.064;113.478;2023-07-31T00:00:15;20.48;;;9.40;;
70414;SDS011;57837;52.064;113.478;2023-07-31T00:03:18;13.57;;;9.93;;
70414;SDS011;57837;52.064;113.478;2023-07-31T00:06:22;16.17;;;8.88;;
70414;SDS011;57837;52.064;113.478;2023-07-31T00:09:26;15.25;;;8.77;;
70414;SDS011;57837;52.064;113.478;2023-07-31T00:12:29;17.17;;;9.33;;
70414;SDS011;57837;52.064;113.478;2023-07-31T00:15:33;13.95;;;8.85;;
70414;SDS011;57837;52.064;113.478;2023-07-31T00:18:37;16.33;;;8.98;;
70414;SDS011;57837;52.064;113.478;2023-07-31T00:21:41;19.98;;;10.30;;
70414;SDS011;57837;52.064;113.478;2023-07-31T00:24:45;12.35;;;8.98;;
70414;SDS011;57837;52.064;113.478;2023-07-31T00:27:49;13.63;;;8.97;;
70414;SDS011;57837;52.064;113.478;2023-07-31T00:30:52;13.52;;;8.88;;
70414;SDS011;57837;52.064;113.478;2023-07-31T00:34:00;11.70;;;9.02;;
70414;SDS011;57837;52.064;113.478;2023-07-31T00:37:04;10.90;;;8.73;;
70414;SDS011;57837;52.064;113.478;2023-07-31T00:40:07;13.50;;;9.00;;
70414;SDS011;57837;52.064;113.478;2023-07-31T00:43:11;12.73;;;10.27;;
70414;SDS011;57837;52.064;113.478;2023-07-31T00:46:15;14.35;;;9.90;;
70414;SDS011;57837;52.064;113.478;2023-07-31T00:49:20;13.52;;;10.88;;
70414;SDS011;57837;52.064;113.478;2023-07-31T00:52:25;11.70;;;9.30;;
70414;SDS011;57837;52.064;113.478;2023-07-31T00:55:30;12.40;;;8.93;;
70414;SDS011;57837;52.064;113.478;2023-07-31T00:58:35;12.10;;;8.63;;
70414;SDS011;57837;52.064;113.478;2023-07-31T01:01:38;13.45;;;8.98;;
70414;SDS011;57837;52.064;113.478;2023-07-31T01:04:42;11.90;;;8.40;;
70414;SDS011;57837;52.064;113.478;2023-07-31T01:07:52;13.32;;;8.63;;
70414;SDS011;57837;52.064;113.478;2023-07-31T01:11:09;14.07;;;9.57;;
70414;SDS011;57837;52.064;113.478;2023-07-31T01:14:34;13.93;;;9.23;;
70414;SDS011;57837;52.064;113.478;2023-07-31T01:17:38;14.15;;;9.48;;
70414;SDS011;57837;52.064;113.478;2023-07-31T01:20:42;17.95;;;9.38;;
70414;SDS011;57837;52.064;113.478;2023-07-31T01:24:11;14.55;;;9.73;;
70414;SDS011;57837;52.064;113.478;2023-07-31T01:27:24;16.98;;;9.45;;
70414;SDS011;57837;52.064;113.478;2023-07-31T01:30:33;19.10;;;9.93;;
70414;SDS011;57837;52.064;113.478;2023-07-31T01:33:40;18.25;;;9.23;;
70414;SDS011;57837;52.064;113.478;2023-07-31T01:36:45;17.17;;;8.63;;
70414;SDS011;57837;52.064;113.478;2023-07-31T01:39:48;14.13;;;9.00;;
70414;SDS011;57837;52.064;113.478;2023-07-31T01:42:52;17.15;;;9.05;;
70414;SDS011;57837;52.064;113.478;2023-07-31T01:45:56;16.73;;;8.63;;
70414;SDS011;57837;52.064;113.478;2023-07-31T01:48:59;13.77;;;9.07;;
70414;SDS011;57837;52.064;113.478;2023-07-31T01:52:02;13.80;;;8.98;;
70414;SDS011;57837;52.064;113.478;2023-07-31T01:55:07;13.85;;;8.75;;
70414;SDS011;57837;52.064;113.478;2023-07-31T01:58:11;13.32;;;8.63;;
70414;SDS011;57837;52.064;113.478;2023-07-31T02:01:14;16.17;;;8.50;;
70414;SDS011;57837;52.064;113.478;2023-07-31T02:04:18;14.20;;;7.95;;
70414;SDS011;57837;52.064;113.478;2023-07-31T02:07:22;11.38;;;7.75;;
70414;SDS011;57837;52.064;113.478;2023-07-31T02:10:26;10.07;;;7.40;;
70414;SDS011;57837;52.064;113.478;2023-07-31T02:13:30;10.18;;;7.20;;
70414;SDS011;57837;52.064;113.478;2023-07-31T02:16:34;15.47;;;7.10;;
70414;SDS011;57837;52.064;113.478;2023-07-31T02:19:38;14.75;;;7.50;;
70414;SDS011;57837;52.064;113.478;2023-07-31T02:22:42;8.77;;;6.32;;
70414;SDS011;57837;52.064;113.478;2023-07-31T02:25:47;9.60;;;6.90;;
70414;SDS011;57837;52.064;113.478;2023-07-31T02:28:50;10.05;;;6.53;;
70414;SDS011;57837;52.064;113.478;2023-07-31T02:31:54;11.17;;;6.40;;
70414;SDS011;57837;52.064;113.478;2023-07-31T02:34:58;14.13;;;7.00;;
70414;SDS011;57837;52.064;113.478;2023-07-31T02:38:03;10.90;;;7.20;;
70414;SDS011;57837;52.064;113.478;2023-07-31T02:41:06;7.78;;;5.63;;
70414;SDS011;57837;52.064;113.478;2023-07-31T02:44:11;10.90;;;8.40;;
70414;SDS011;57837;52.064;113.478;2023-07-31T02:47:17;9.07;;;6.80;;
70414;SDS011;57837;52.064;113.478;2023-07-31T02:50:21;8.90;;;7.50;;
70414;SDS011;57837;52.064;113.478;2023-07-31T02:53:25;41.95;;;7.45;;
70414;SDS011;57837;52.064;113.478;2023-07-31T02:56:28;10.15;;;5.80;;
70414;SDS011;57837;52.064;113.478;2023-07-31T02:59:33;11.23;;;5.43;;
70414;SDS011;57837;52.064;113.478;2023-07-31T03:02:37;9.13;;;5.90;;
70414;SDS011;57837;52.064;113.478;2023-07-31T03:05:41;20.20;;;6.30;;
70414;SDS011;57837;52.064;113.478;2023-07-31T03:08:44;10.10;;;5.88;;
70414;SDS011;57837;52.064;113.478;2023-07-31T03:11:49;20.70;;;7.78;;
70414;SDS011;57837;52.064;113.478;2023-07-31T03:14:53;57.83;;;8.80;;
70414;SDS011;57837;52.064;113.478;2023-07-31T03:17:56;22.33;;;6.70;;
70414;SDS011;57837;52.064;113.478;2023-07-31T03:21:00;30.00;;;6.75;;
70414;SDS011;57837;52.064;113.478;2023-07-31T03:24:04;17.38;;;6.82;;
70414;SDS011;57837;52.064;113.478;2023-07-31T03:27:08;15.38;;;6.18;;
70414;SDS011;57837;52.064;113.478;2023-07-31T03:30:12;16.50;;;7.60;;
70414;SDS011;57837;52.064;113.478;2023-07-31T03:33:16;13.77;;;7.30;;
70414;SDS011;57837;52.064;113.478;2023-07-31T03:36:19;12.75;;;6.93;;
70414;SDS011;57837;52.064;113.478;2023-07-31T03:39:23;37.95;;;8.25;;
70414;SDS011;57837;52.064;113.478;2023-07-31T03:42:27;23.55;;;6.97;;
70414;SDS011;57837;52.064;113.478;2023-07-31T03:45:32;19.55;;;6.25;;
70414;SDS011;57837;52.064;113.478;2023-07-31T03:48:35;14.50;;;5.60;;
70414;SDS011;57837;52.064;113.478;2023-07-31T03:51:39;21.38;;;5.93;;
70414;SDS011;57837;52.064;113.478;2023-07-31T03:54:42;48.80;;;7.68;;
70414;SDS011;57837;52.064;113.478;2023-07-31T03:57:47;11.48;;;5.30;;
70414;SDS011;57837;52.064;113.478;2023-07-31T04:00:51;12.90;;;5.80;;
70414;SDS011;57837;52.064;113.478;2023-07-31T04:03:55;13.60;;;8.27;;
70414;SDS011;57837;52.064;113.478;2023-07-31T04:06:58;13.93;;;5.38;;
70414;SDS011;57837;52.064;113.478;2023-07-31T04:10:03;9.68;;;5.20;;
70414;SDS011;57837;52.064;113.478;2023-07-31T04:13:07;8.20;;;4.90;;
70414;SDS011;57837;52.064;113.478;2023-07-31T04:16:11;43.30;;;6.90;;
70414;SDS011;57837;52.064;113.478;2023-07-31T04:19:14;77.73;;;8.53;;
70414;SDS011;57837;52.064;113.478;2023-07-31T04:22:24;19.27;;;6.40;;
70414;SDS011;57837;52.064;113.478;2023-07-31T04:25:29;10.45;;;5.35;;
70414;SDS011;57837;52.064;113.478;2023-07-31T04:28:32;9.00;;;6.43;;
70414;SDS011;57837;52.064;113.478;2023-07-31T04:31:35;17.40;;;5.80;;
70414;SDS011;57837;52.064;113.478;2023-07-31T04:34:40;8.73;;;5.97;;
70414;SDS011;57837;52.064;113.478;2023-07-31T04:37:43;9.88;;;5.50;;
70414;SDS011;57837;52.064;113.478;2023-07-31T04:40:49;10.18;;;5.45;;
70414;SDS011;57837;52.064;113.478;2023-07-31T04:43:52;9.23;;;5.90;;
70414;SDS011;57837;52.064;113.478;2023-07-31T04:46:55;9.88;;;5.68;;
70414;SDS011;57837;52.064;113.478;2023-07-31T04:49:59;7.83;;;5.27;;
70414;SDS011;57837;52.064;113.478;2023-07-31T04:53:03;12.68;;;5.63;;
70414;SDS011;57837;52.064;113.478;2023-07-31T04:56:07;8.85;;;5.47;;
70414;SDS011;57837;52.064;113.478;2023-07-31T04:59:11;11.05;;;5.70;;
70414;SDS011;57837;52.064;113.478;2023-07-31T05:02:15;10.35;;;4.93;;
70414;SDS011;57837;52.064;113.478;2023-07-31T05:05:19;10.17;;;5.13;;
70414;SDS011;57837;52.064;113.478;2023-07-31T05:08:22;10.23;;;5.60;;
70414;SDS011;57837;52.064;113.478;2023-07-31T05:11:26;9.48;;;4.13;;
70414;SDS011;57837;52.064;113.478;2023-07-31T05:14:29;12.27;;;4.40;;
70414;SDS011;57837;52.064;113.478;2023-07-31T05:17:32;10.32;;;4.10;;
70414;SDS011;57837;52.064;113.478;2023-07-31T05:20:36;14.97;;;4.00;;
70414;SDS011;57837;52.064;113.478;2023-07-31T05:23:40;16.40;;;4.07;;
70414;SDS011;57837;52.064;113.478;2023-07-31T05:26:43;8.32;;;3.63;;
70414;SDS011;57837;52.064;113.478;2023-07-31T05:29:47;13.50;;;3.95;;
70414;SDS011;57837;52.064;113.478;2023-07-31T05:32:53;11.48;;;3.78;;
70414;SDS011;57837;52.064;113.478;2023-07-31T05:35:56;13.70;;;4.20;;
70414;SDS011;57837;52.064;113.478;2023-07-31T05:39:00;11.02;;;3.95;;
70414;SDS011;57837;52.064;113.478;2023-07-31T05:42:08;10.95;;;4.80;;
70414;SDS011;57837;52.064;113.478;2023-07-31T05:45:12;10.70;;;4.10;;
70414;SDS011;57837;52.064;113.478;2023-07-31T05:48:16;9.02;;;4.07;;
70414;SDS011;57837;52.064;113.478;2023-07-31T05:51:19;10.57;;;4.27;;
70414;SDS011;57837;52.064;113.478;2023-07-31T05:54:23;13.75;;;4.53;;
70414;SDS011;57837;52.064;113.478;2023-07-31T05:57:27;26.88;;;4.78;;
70414;SDS011;57837;52.064;113.478;2023-07-31T06:00:30;13.13;;;4.40;;
70414;SDS011;57837;52.064;113.478;2023-07-31T06:03:33;12.13;;;4.53;;
70414;SDS011;57837;52.064;113.478;2023-07-31T06:06:36;13.07;;;4.30;;
70414;SDS011;57837;52.064;113.478;2023-07-31T06:09:40;11.05;;;4.63;;
70414;SDS011;57837;52.064;113.478;2023-07-31T06:12:44;11.38;;;4.65;;
70414;SDS011;57837;52.064;113.478;2023-07-31T06:15:47;16.52;;;5.20;;
70414;SDS011;57837;52.064;113.478;2023-07-31T06:18:51;9.98;;;4.50;;
70414;SDS011;57837;52.064;113.478;2023-07-31T06:21:56;15.43;;;4.60;;
70414;SDS011;57837;52.064;113.478;2023-07-31T06:24:59;13.68;;;4.90;;
70414;SDS011;57837;52.064;113.478;2023-07-31T06:28:03;12.30;;;4.75;;
70414;SDS011;57837;52.064;113.478;2023-07-31T06:31:07;21.90;;;5.68;;
70414;SDS011;57837;52.064;113.478;2023-07-31T06:34:11;12.00;;;5.00;;
70414;SDS011;57837;52.064;113.478;2023-07-31T06:37:15;13.63;;;4.70;;
70414;SDS011;57837;52.064;113.478;2023-07-31T06:40:18;10.10;;;4.28;;
70414;SDS011;57837;52.064;113.478;2023-07-31T06:43:21;28.42;;;5.72;;
70414;SDS011;57837;52.064;113.478;2023-07-31T06:46:27;15.23;;;5.15;;
70414;SDS011;57837;52.064;113.478;2023-07-31T06:49:30;15.55;;;5.78;;
70414;SDS011;57837;52.064;113.478;2023-07-31T06:52:33;12.27;;;4.80;;
70414;SDS011;57837;52.064;113.478;2023-07-31T06:55:37;11.98;;;4.78;;
70414;SDS011;57837;52.064;113.478;2023-07-31T06:58:40;13.65;;;5.13;;
70414;SDS011;57837;52.064;113.478;2023-07-31T07:01:44;20.92;;;5.32;;
70414;SDS011;57837;52.064;113.478;2023-07-31T07:04:48;17.77;;;4.60;;
70414;SDS011;57837;52.064;113.478;2023-07-31T07:07:53;8.07;;;4.23;;
70414;SDS011;57837;52.064;113.478;2023-07-31T07:10:56;13.75;;;5.05;;
70414;SDS011;57837;52.064;113.478;2023-07-31T07:13:59;16.35;;;5.35;;
70414;SDS011;57837;52.064;113.478;2023-07-31T07:17:03;13.48;;;4.80;;
70414;SDS011;57837;52.064;113.478;2023-07-31T07:20:06;19.85;;;4.93;;
70414;SDS011;57837;52.064;113.478;2023-07-31T07:23:10;12.77;;;4.40;;
70414;SDS011;57837;52.064;113.478;2023-07-31T07:26:13;12.13;;;4.38;;
70414;SDS011;57837;52.064;113.478;2023-07-31T07:29:17;8.23;;;4.20;;
70414;SDS011;57837;52.064;113.478;2023-07-31T07:32:20;14.55;;;4.88;;
70414;SDS011;57837;52.064;113.478;2023-07-31T07:35:24;12.70;;;5.10;;
70414;SDS011;57837;52.064;113.478;2023-07-31T07:38:27;11.60;;;4.60;;
70414;SDS011;57837;52.064;113.478;2023-07-31T07:41:31;12.30;;;5.05;;
70414;SDS011;57837;52.064;113.478;2023-07-31T07:44:34;7.97;;;4.28;;
70414;SDS011;57837;52.064;113.478;2023-07-31T07:47:42;9.48;;;4.90;;
70414;SDS011;57837;52.064;113.478;2023-07-31T07:50:45;14.75;;;6.15;;
70414;SDS011;57837;52.064;113.478;2023-07-31T07:53:49;13.50;;;5.23;;
70414;SDS011;57837;52.064;113.478;2023-07-31T07:56:53;13.95;;;5.28;;
70414;SDS011;57837;52.064;113.478;2023-07-31T07:59:57;11.85;;;4.53;;
70414;SDS011;57837;52.064;113.478;2023-07-31T08:03:01;11.55;;;4.38;;
70414;SDS011;57837;52.064;113.478;2023-07-31T08:06:06;9.68;;;4.97;;
70414;SDS011;57837;52.064;113.478;2023-07-31T08:09:12;15.30;;;4.70;;
70414;SDS011;57837;52.064;113.478;2023-07-31T08:12:16;13.00;;;4.63;;
70414;SDS011;57837;52.064;113.478;2023-07-31T08:15:19;10.05;;;4.47;;
70414;SDS011;57837;52.064;113.478;2023-07-31T08:18:23;8.43;;;4.35;;
70414;SDS011;57837;52.064;113.478;2023-07-31T08:21:26;9.90;;;4.40;;
70414;SDS011;57837;52.064;113.478;2023-07-31T08:24:31;11.00;;;4.93;;
70414;SDS011;57837;52.064;113.478;2023-07-31T08:27:34;15.40;;;4.95;;
70414;SDS011;57837;52.064;113.478;2023-07-31T08:30:37;10.88;;;5.05;;
70414;SDS011;57837;52.064;113.478;2023-07-31T08:33:41;17.92;;;6.22;;
70414;SDS011;57837;52.064;113.478;2023-07-31T08:36:44;22.17;;;7.75;;
70414;SDS011;57837;52.064;113.478;2023-07-31T08:39:47;15.23;;;7.83;;
70414;SDS011;57837;52.064;113.478;2023-07-31T08:42:53;21.15;;;8.18;;
70414;SDS011;57837;52.064;113.478;2023-07-31T08:46:00;18.67;;;6.30;;
70414;SDS011;57837;52.064;113.478;2023-07-31T08:49:05;18.52;;;6.32;;
70414;SDS011;57837;52.064;113.478;2023-07-31T08:52:10;15.98;;;5.32;;
70414;SDS011;57837;52.064;113.478;2023-07-31T08:55:13;11.20;;;4.80;;
70414;SDS011;57837;52.064;113.478;2023-07-31T08:58:17;12.05;;;5.30;;
70414;SDS011;57837;52.064;113.478;2023-07-31T09:01:21;10.40;;;4.88;;
70414;SDS011;57837;52.064;113.478;2023-07-31T09:04:26;17.92;;;4.93;;
70414;SDS011;57837;52.064;113.478;2023-07-31T09:07:30;12.52;;;4.80;;
70414;SDS011;57837;52.064;113.478;2023-07-31T09:10:43;9.57;;;3.90;;
70414;SDS011;57837;52.064;113.478;2023-07-31T09:13:51;10.57;;;4.22;;
70414;SDS011;57837;52.064;113.478;2023-07-31T09:16:55;15.43;;;4.05;;
70414;SDS011;57837;52.064;113.478;2023-07-31T09:20:14;14.50;;;4.07;;
70414;SDS011;57837;52.064;113.478;2023-07-31T09:23:19;14.10;;;4.00;;
70414;SDS011;57837;52.064;113.478;2023-07-31T09:26:31;14.43;;;4.30;;
70414;SDS011;57837;52.064;113.478;2023-07-31T09:29:36;14.70;;;4.60;;
70414;SDS011;57837;52.064;113.478;2023-07-31T09:32:39;12.07;;;4.78;;
70414;SDS011;57837;52.064;113.478;2023-07-31T09:35:43;16.30;;;4.97;;
70414;SDS011;57837;52.064;113.478;2023-07-31T09:38:47;15.68;;;4.13;;
70414;SDS011;57837;52.064;113.478;2023-07-31T09:41:53;20.03;;;4.63;;
70414;SDS011;57837;52.064;113.478;2023-07-31T09:45:07;19.83;;;4.85;;
70414;SDS011;57837;52.064;113.478;2023-07-31T09:48:17;14.40;;;4.03;;
70414;SDS011;57837;52.064;113.478;2023-07-31T09:51:27;32.38;;;5.63;;
70414;SDS011;57837;52.064;113.478;2023-07-31T09:54:30;15.75;;;4.57;;
70414;SDS011;57837;52.064;113.478;2023-07-31T09:57:34;16.00;;;4.50;;
70414;SDS011;57837;52.064;113.478;2023-07-31T10:00:39;12.13;;;4.25;;
70414;SDS011;57837;52.064;113.478;2023-07-31T10:03:43;14.10;;;4.70;;
70414;SDS011;57837;52.064;113.478;2023-07-31T10:06:49;11.90;;;4.57;;
70414;SDS011;57837;52.064;113.478;2023-07-31T10:09:56;16.73;;;5.18;;
70414;SDS011;57837;52.064;113.478;2023-07-31T10:13:06;12.90;;;4.20;;
70414;SDS011;57837;52.064;113.478;2023-07-31T10:16:10;18.00;;;4.97;;
70414;SDS011;57837;52.064;113.478;2023-07-31T10:19:16;17.52;;;5.38;;
70414;SDS011;57837;52.064;113.478;2023-07-31T10:22:22;20.30;;;5.35;;
70414;SDS011;57837;52.064;113.478;2023-07-31T10:25:26;22.75;;;5.90;;
70414;SDS011;57837;52.064;113.478;2023-07-31T10:28:30;14.97;;;4.60;;
70414;SDS011;57837;52.064;113.478;2023-07-31T10:31:35;14.23;;;4.78;;
70414;SDS011;57837;52.064;113.478;2023-07-31T10:34:40;15.40;;;4.03;;
70414;SDS011;57837;52.064;113.478;2023-07-31T10:37:44;15.32;;;3.50;;
70414;SDS011;57837;52.064;113.478;2023-07-31T10:40:48;12.20;;;4.10;;
70414;SDS011;57837;52.064;113.478;2023-07-31T10:43:54;13.63;;;4.03;;
70414;SDS011;57837;52.064;113.478;2023-07-31T10:47:00;15.98;;;4.35;;
70414;SDS011;57837;52.064;113.478;2023-07-31T10:50:16;13.00;;;3.72;;
70414;SDS011;57837;52.064;113.478;2023-07-31T10:56:36;12.18;;;4.38;;
70414;SDS011;57837;52.064;113.478;2023-07-31T10:59:42;10.47;;;4.30;;
70414;SDS011;57837;52.064;113.478;2023-07-31T11:03:06;13.88;;;5.10;;
70414;SDS011;57837;52.064;113.478;2023-07-31T11:06:14;10.65;;;3.65;;
70414;SDS011;57837;52.064;113.478;2023-07-31T11:09:20;14.05;;;3.53;;
70414;SDS011;57837;52.064;113.478;2023-07-31T11:12:24;13.60;;;4.18;;
70414;SDS011;57837;52.064;113.478;2023-07-31T11:15:28;10.40;;;3.63;;
70414;SDS011;57837;52.064;113.478;2023-07-31T11:18:32;12.70;;;3.72;;
70414;SDS011;57837;52.064;113.478;2023-07-31T11:21:36;15.00;;;3.45;;
70414;SDS011;57837;52.064;113.478;2023-07-31T11:24:39;18.35;;;3.45;;
70414;SDS011;57837;52.064;113.478;2023-07-31T11:27:44;12.00;;;3.60;;
70414;SDS011;57837;52.064;113.478;2023-07-31T11:30:47;18.57;;;4.40;;
70414;SDS011;57837;52.064;113.478;2023-07-31T11:34:03;26.98;;;8.55;;
70414;SDS011;57837;52.064;113.478;2023-07-31T11:37:07;22.02;;;7.20;;
70414;SDS011;57837;52.064;113.478;2023-07-31T11:40:11;25.02;;;7.35;;
70414;SDS011;57837;52.064;113.478;2023-07-31T11:43:15;17.70;;;6.65;;
70414;SDS011;57837;52.064;113.478;2023-07-31T11:46:20;23.43;;;8.17;;
70414;SDS011;57837;52.064;113.478;2023-07-31T11:49:25;32.08;;;7.13;;
70414;SDS011;57837;52.064;113.478;2023-07-31T11:52:29;25.50;;;5.60;;
70414;SDS011;57837;52.064;113.478;2023-07-31T11:55:37;25.05;;;6.70;;
70414;SDS011;57837;52.064;113.478;2023-07-31T11:58:41;20.77;;;6.00;;
70414;SDS011;57837;52.064;113.478;2023-07-31T12:01:45;25.70;;;7.50;;
70414;SDS011;57837;52.064;113.478;2023-07-31T12:04:48;21.92;;;6.60;;
70414;SDS011;57837;52.064;113.478;2023-07-31T12:07:52;24.52;;;6.65;;
70414;SDS011;57837;52.064;113.478;2023-07-31T12:11:02;20.95;;;6.30;;
70414;SDS011;57837;52.064;113.478;2023-07-31T12:14:07;30.08;;;8.10;;
70414;SDS011;57837;52.064;113.478;2023-07-31T12:17:13;28.17;;;7.43;;
70414;SDS011;57837;52.064;113.478;2023-07-31T12:20:19;20.50;;;7.03;;
70414;SDS011;57837;52.064;113.478;2023-07-31T12:23:27;21.33;;;7.60;;
70414;SDS011;57837;52.064;113.478;2023-07-31T12:26:35;25.33;;;12.57;;
70414;SDS011;57837;52.064;113.478;2023-07-31T12:29:39;21.65;;;7.75;;
70414;SDS011;57837;52.064;113.478;2023-07-31T12:32:44;17.00;;;7.93;;
70414;SDS011;57837;52.064;113.478;2023-07-31T12:35:48;23.05;;;7.50;;
70414;SDS011;57837;52.064;113.478;2023-07-31T12:38:51;18.35;;;7.63;;
70414;SDS011;57837;52.064;113.478;2023-07-31T12:41:55;29.58;;;8.40;;
70414;SDS011;57837;52.064;113.478;2023-07-31T12:44:58;23.38;;;9.38;;
70414;SDS011;57837;52.064;113.478;2023-07-31T12:48:02;23.47;;;9.00;;
70414;SDS011;57837;52.064;113.478;2023-07-31T12:51:07;27.25;;;8.73;;
70414;SDS011;57837;52.064;113.478;2023-07-31T12:54:11;40.25;;;8.65;;
70414;SDS011;57837;52.064;113.478;2023-07-31T12:57:15;35.72;;;9.68;;
70414;SDS011;57837;52.064;113.478;2023-07-31T13:00:18;37.60;;;9.02;;
70414;SDS011;57837;52.064;113.478;2023-07-31T13:03:22;29.40;;;9.27;;
70414;SDS011;57837;52.064;113.478;2023-07-31T13:06:26;23.90;;;7.10;;
70414;SDS011;57837;52.064;113.478;2023-07-31T13:09:29;23.42;;;7.63;;
70414;SDS011;57837;52.064;113.478;2023-07-31T13:12:32;23.80;;;6.60;;
70414;SDS011;57837;52.064;113.478;2023-07-31T13:15:37;13.80;;;7.47;;
70414;SDS011;57837;52.064;113.478;2023-07-31T13:18:41;18.30;;;7.20;;
70414;SDS011;57837;52.064;113.478;2023-07-31T13:21:44;13.25;;;6.20;;
70414;SDS011;57837;52.064;113.478;2023-07-31T13:24:48;12.07;;;6.45;;
70414;SDS011;57837;52.064;113.478;2023-07-31T13:27:51;14.52;;;7.35;;
70414;SDS011;57837;52.064;113.478;2023-07-31T13:30:54;20.77;;;7.93;;
70414;SDS011;57837;52.064;113.478;2023-07-31T13:33:58;12.63;;;6.60;;
70414;SDS011;57837;52.064;113.478;2023-07-31T13:37:02;21.67;;;7.40;;
70414;SDS011;57837;52.064;113.478;2023-07-31T13:40:05;17.27;;;6.55;;
70414;SDS011;57837;52.064;113.478;2023-07-31T13:43:09;13.73;;;6.97;;
70414;SDS011;57837;52.064;113.478;2023-07-31T13:46:12;16.33;;;6.63;;
70414;SDS011;57837;52.064;113.478;2023-07-31T13:49:15;20.50;;;5.70;;
70414;SDS011;57837;52.064;113.478;2023-07-31T13:52:18;14.13;;;5.20;;
70414;SDS011;57837;52.064;113.478;2023-07-31T13:55:22;13.38;;;6.30;;
70414;SDS011;57837;52.064;113.478;2023-07-31T13:58:26;12.18;;;5.63;;
70414;SDS011;57837;52.064;113.478;2023-07-31T14:01:29;18.52;;;6.20;;
70414;SDS011;57837;52.064;113.478;2023-07-31T14:04:32;22.10;;;6.93;;
70414;SDS011;57837;52.064;113.478;2023-07-31T14:07:36;16.80;;;6.35;;
70414;SDS011;57837;52.064;113.478;2023-07-31T14:10:39;22.55;;;7.05;;
70414;SDS011;57837;52.064;113.478;2023-07-31T14:13:44;16.67;;;6.50;;
70414;SDS011;57837;52.064;113.478;2023-07-31T14:16:47;15.82;;;6.40;;
70414;SDS011;57837;52.064;113.478;2023-07-31T14:19:51;16.27;;;7.27;;
70414;SDS011;57837;52.064;113.478;2023-07-31T14:22:55;15.80;;;7.15;;
70414;SDS011;57837;52.064;113.478;2023-07-31T14:26:00;14.23;;;7.03;;
70414;SDS011;57837;52.064;113.478;2023-07-31T14:29:03;16.15;;;6.85;;
70414;SDS011;57837;52.064;113.478;2023-07-31T14:32:07;16.20;;;6.70;;
70414;SDS011;57837;52.064;113.478;2023-07-31T14:35:11;14.03;;;6.53;;
70414;SDS011;57837;52.064;113.478;2023-07-31T14:38:15;9.65;;;5.30;;
70414;SDS011;57837;52.064;113.478;2023-07-31T14:41:18;15.63;;;5.88;;
70414;SDS011;57837;52.064;113.478;2023-07-31T14:44:22;14.20;;;6.32;;
70414;SDS011;57837;52.064;113.478;2023-07-31T14:47:26;15.55;;;6.25;;
70414;SDS011;57837;52.064;113.478;2023-07-31T14:50:30;20.27;;;6.47;;
70414;SDS011;57837;52.064;113.478;2023-07-31T14:53:34;14.52;;;6.22;;
70414;SDS011;57837;52.064;113.478;2023-07-31T14:56:38;17.48;;;6.28;;
70414;SDS011;57837;52.064;113.478;2023-07-31T14:59:42;13.18;;;6.22;;
70414;SDS011;57837;52.064;113.478;2023-07-31T15:02:46;21.10;;;7.65;;
70414;SDS011;57837;52.064;113.478;2023-07-31T15:05:49;17.17;;;7.60;;
70414;SDS011;57837;52.064;113.478;2023-07-31T15:08:53;17.52;;;6.88;;
70414;SDS011;57837;52.064;113.478;2023-07-31T15:11:56;15.30;;;6.07;;
70414;SDS011;57837;52.064;113.478;2023-07-31T15:15:01;15.70;;;6.78;;
70414;SDS011;57837;52.064;113.478;2023-07-31T15:18:04;11.85;;;5.93;;
70414;SDS011;57837;52.064;113.478;2023-07-31T15:21:07;22.47;;;6.57;;
70414;SDS011;57837;52.064;113.478;2023-07-31T15:24:12;17.83;;;7.30;;
70414;SDS011;57837;52.064;113.478;2023-07-31T15:27:16;11.75;;;6.15;;
70414;SDS011;57837;52.064;113.478;2023-07-31T15:30:19;14.60;;;5.55;;
70414;SDS011;57837;52.064;113.478;2023-07-31T15:33:23;19.83;;;6.43;;
70414;SDS011;57837;52.064;113.478;2023-07-31T15:36:27;13.43;;;6.33;;
70414;SDS011;57837;52.064;113.478;2023-07-31T15:39:30;20.25;;;6.40;;
70414;SDS011;57837;52.064;113.478;2023-07-31T15:42:33;15.20;;;5.63;;
70414;SDS011;57837;52.064;113.478;2023-07-31T15:45:41;14.02;;;5.70;;
70414;SDS011;57837;52.064;113.478;2023-07-31T15:48:44;12.73;;;6.72;;
70414;SDS011;57837;52.064;113.478;2023-07-31T15:51:48;22.00;;;12.43;;
70414;SDS011;57837;52.064;113.478;2023-07-31T15:54:51;16.55;;;8.07;;
70414;SDS011;57837;52.064;113.478;2023-07-31T15:57:54;13.57;;;7.43;;
70414;SDS011;57837;52.064;113.478;2023-07-31T16:00:57;11.85;;;6.05;;
70414;SDS011;57837;52.064;113.478;2023-07-31T16:04:02;15.95;;;6.80;;
70414;SDS011;57837;52.064;113.478;2023-07-31T16:07:06;15.97;;;6.70;;
70414;SDS011;57837;52.064;113.478;2023-07-31T16:10:10;22.73;;;7.80;;
70414;SDS011;57837;52.064;113.478;2023-07-31T16:13:14;15.57;;;6.93;;
70414;SDS011;57837;52.064;113.478;2023-07-31T16:16:17;12.73;;;6.88;;
70414;SDS011;57837;52.064;113.478;2023-07-31T16:19:22;16.50;;;6.93;;
70414;SDS011;57837;52.064;113.478;2023-07-31T16:22:30;16.07;;;6.77;;
70414;SDS011;57837;52.064;113.478;2023-07-31T16:25:33;20.55;;;6.85;;
70414;SDS011;57837;52.064;113.478;2023-07-31T16:28:36;14.85;;;6.30;;
70414;SDS011;57837;52.064;113.478;2023-07-31T16:31:39;16.02;;;6.18;;
70414;SDS011;57837;52.064;113.478;2023-07-31T16:34:58;16.48;;;6.30;;
70414;SDS011;57837;52.064;113.478;2023-07-31T16:38:01;15.23;;;6.90;;
70414;SDS011;57837;52.064;113.478;2023-07-31T16:41:06;13.25;;;6.78;;
70414;SDS011;57837;52.064;113.478;2023-07-31T16:44:09;18.35;;;7.05;;
70414;SDS011;57837;52.064;113.478;2023-07-31T16:47:18;17.92;;;6.70;;
70414;SDS011;57837;52.064;113.478;2023-07-31T16:50:21;10.98;;;6.85;;
70414;SDS011;57837;52.064;113.478;2023-07-31T16:53:26;15.07;;;7.97;;
70414;SDS011;57837;52.064;113.478;2023-07-31T16:56:29;16.40;;;8.07;;
70414;SDS011;57837;52.064;113.478;2023-07-31T16:59:46;17.98;;;7.60;;
70414;SDS011;57837;52.064;113.478;2023-07-31T17:02:50;14.90;;;6.93;;
70414;SDS011;57837;52.064;113.478;2023-07-31T17:05:54;14.45;;;6.35;;
70414;SDS011;57837;52.064;113.478;2023-07-31T17:08:58;14.00;;;7.10;;
70414;SDS011;57837;52.064;113.478;2023-07-31T17:12:02;16.25;;;6.35;;
70414;SDS011;57837;52.064;113.478;2023-07-31T17:15:06;16.75;;;7.35;;
70414;SDS011;57837;52.064;113.478;2023-07-31T17:18:11;14.32;;;6.80;;
70414;SDS011;57837;52.064;113.478;2023-07-31T17:21:15;12.60;;;6.53;;
70414;SDS011;57837;52.064;113.478;2023-07-31T17:24:19;16.57;;;6.87;;
70414;SDS011;57837;52.064;113.478;2023-07-31T17:27:22;15.38;;;7.60;;
70414;SDS011;57837;52.064;113.478;2023-07-31T17:30:26;17.73;;;7.05;;
70414;SDS011;57837;52.064;113.478;2023-07-31T17:33:29;15.55;;;7.35;;
70414;SDS011;57837;52.064;113.478;2023-07-31T17:36:32;12.60;;;6.93;;
70414;SDS011;57837;52.064;113.478;2023-07-31T17:39:36;25.47;;;12.80;;
70414;SDS011;57837;52.064;113.478;2023-07-31T17:42:39;16.95;;;8.38;;
70414;SDS011;57837;52.064;113.478;2023-07-31T17:45:43;16.58;;;6.78;;